createdAt,value
2022-08-19T00:00:02.238Z,98188.00
2022-08-19T00:02:33.159Z,98189.63
2022-08-19T00:05:02.461Z,98191.09
2022-08-19T00:07:31.605Z,98193.69
2022-08-19T00:10:01.606Z,98190.06
2022-08-19T00:12:32.010Z,98189.16
2022-08-19T00:15:01.006Z,98186.44
2022-08-19T00:17:30.153Z,98179.09
2022-08-19T00:19:59.033Z,98185.47
2022-08-19T00:22:29.505Z,98196.00
2022-08-19T00:24:58.259Z,98196.00
2022-08-19T00:27:32.550Z,98199.66
2022-08-19T00:30:03.040Z,98204.78
2022-08-19T00:32:32.747Z,98201.94
2022-08-19T00:35:03.693Z,98205.81
2022-08-19T00:37:34.264Z,98210.25
2022-08-19T00:40:05.399Z,98206.38
2022-08-19T00:42:36.015Z,98198.28
2022-08-19T00:45:13.016Z,98196.00
2022-08-19T00:47:42.528Z,98210.78
2022-08-19T00:50:17.289Z,98195.34
2022-08-19T00:52:52.453Z,98203.72
2022-08-19T00:55:30.016Z,98202.66
2022-08-19T00:58:04.845Z,98203.47
2022-08-19T01:00:37.737Z,98206.84
2022-08-19T01:03:10.038Z,98212.63
2022-08-19T01:05:43.445Z,98204.97
2022-08-19T01:08:13.802Z,98198.47
2022-08-19T01:10:47.915Z,98195.47
2022-08-19T01:13:21.578Z,98195.47
2022-08-19T01:15:57.068Z,98202.25
2022-08-19T01:18:29.556Z,98212.63
2022-08-19T01:21:05.462Z,98222.88
2022-08-19T01:23:44.750Z,98229.28
2022-08-19T01:26:19.380Z,98229.91
2022-08-19T01:28:53.584Z,98225.94
2022-08-19T01:31:27.758Z,98223.03
2022-08-19T01:33:59.725Z,98212.91
2022-08-19T01:36:32.851Z,98220.63
2022-08-19T01:39:08.645Z,98216.50
2022-08-19T01:41:37.896Z,98206.91
2022-08-19T01:44:18.447Z,98203.69
2022-08-19T01:46:50.635Z,98208.50
2022-08-19T01:49:23.095Z,98208.50
2022-08-19T01:51:52.564Z,98203.31
2022-08-19T01:54:27.943Z,98216.50
2022-08-19T01:57:02.495Z,98223.72
2022-08-19T01:59:33.267Z,98223.25
2022-08-19T02:02:02.275Z,98217.28
2022-08-19T02:04:31.410Z,98220.19
2022-08-19T02:07:00.969Z,98212.13
2022-08-19T02:09:32.633Z,98200.31
2022-08-19T02:12:01.612Z,98192.13
2022-08-19T02:14:30.668Z,98172.34
2022-08-19T02:16:59.462Z,98173.50
2022-08-19T02:19:28.833Z,98181.88
2022-08-19T02:21:57.848Z,98196.78
2022-08-19T02:24:26.931Z,98205.75
2022-08-19T02:26:58.407Z,98207.69
2022-08-19T02:29:27.544Z,98218.00
2022-08-19T02:31:56.612Z,98214.13
2022-08-19T02:34:26.401Z,98213.16
2022-08-19T02:36:55.493Z,98210.09
2022-08-19T02:39:23.445Z,98214.22
2022-08-19T02:41:53.184Z,98214.22
2022-08-19T02:44:31.328Z,98217.91
2022-08-19T02:47:01.149Z,98215.16
2022-08-19T02:49:30.213Z,98218.34
2022-08-19T02:52:04.377Z,98223.66
2022-08-19T02:54:33.358Z,98215.63
2022-08-19T02:57:02.429Z,98223.34
2022-08-19T02:59:35.346Z,98218.22
2022-08-19T03:02:04.770Z,98220.28
2022-08-19T03:04:33.758Z,98222.06
2022-08-19T03:07:02.912Z,98215.81
2022-08-19T03:09:40.609Z,98211.94
2022-08-19T03:12:09.950Z,98208.09
2022-08-19T03:14:40.888Z,98205.69
2022-08-19T03:17:10.660Z,98213.88
2022-08-19T03:19:39.746Z,98209.56
2022-08-19T03:22:10.413Z,98212.75
2022-08-19T03:24:42.019Z,98212.34
2022-08-19T03:27:10.930Z,98215.09
2022-08-19T03:29:43.205Z,98217.81
2022-08-19T03:32:19.850Z,98218.47
2022-08-19T03:35:03.438Z,98216.72
2022-08-19T03:37:32.431Z,98223.63
2022-08-19T03:40:01.425Z,98215.25
2022-08-19T03:42:38.125Z,98220.72
2022-08-19T03:45:20.715Z,98217.81
2022-08-19T03:47:49.744Z,98220.31
2022-08-19T03:50:20.788Z,98222.75
2022-08-19T03:52:52.960Z,98219.69
2022-08-19T03:55:22.249Z,98226.72
2022-08-19T03:57:51.230Z,98227.41
2022-08-19T04:00:21.949Z,98227.41
2022-08-19T04:02:58.254Z,98224.78
2022-08-19T04:05:30.854Z,98224.47
2022-08-19T04:08:00.504Z,98226.09
2022-08-19T04:10:30.181Z,98226.09
2022-08-19T04:12:59.209Z,98223.66
2022-08-19T04:15:34.696Z,98217.59
2022-08-19T04:18:03.978Z,98206.22
2022-08-19T04:20:33.001Z,98206.69
2022-08-19T04:23:01.882Z,98207.81
2022-08-19T04:25:30.791Z,98211.41
2022-08-19T04:27:59.970Z,98218.13
2022-08-19T04:30:30.420Z,98221.34
2022-08-19T04:32:59.349Z,98223.25
2022-08-19T04:35:28.265Z,98218.00
2022-08-19T04:37:57.195Z,98219.31
2022-08-19T04:40:43.578Z,98222.97
2022-08-19T04:43:13.334Z,98237.72
2022-08-19T04:45:44.637Z,98240.16
2022-08-19T04:48:26.893Z,98239.81
2022-08-19T04:50:59.796Z,98247.88
2022-08-19T04:53:37.850Z,98245.94
2022-08-19T04:56:11.150Z,98248.97
2022-08-19T04:58:43.483Z,98242.88
2022-08-19T05:01:15.822Z,98235.47
2022-08-19T05:04:10.138Z,98239.69
2022-08-19T05:06:53.868Z,98238.88
2022-08-19T05:09:57.204Z,98241.91
2022-08-19T05:12:29.264Z,98233.72
2022-08-19T05:15:00.130Z,98244.66
2022-08-19T05:17:34.875Z,98250.00
2022-08-19T05:20:25.866Z,98253.81
2022-08-19T05:22:55.457Z,98255.41
2022-08-19T05:25:26.899Z,98258.00
2022-08-19T05:28:00.358Z,98257.88
2022-08-19T05:30:42.353Z,98271.28
2022-08-19T05:33:17.756Z,98271.44
2022-08-19T05:35:47.488Z,98273.84
2022-08-19T05:38:16.819Z,98283.31
2022-08-19T05:40:50.662Z,98287.81
2022-08-19T05:43:19.651Z,98291.50
2022-08-19T05:45:49.033Z,98295.03
2022-08-19T05:48:21.675Z,98296.03
2022-08-19T05:50:52.125Z,98295.69
2022-08-19T05:53:21.810Z,98304.50
2022-08-19T05:55:50.962Z,98315.13
2022-08-19T05:58:20.044Z,98321.53
2022-08-19T06:00:53.616Z,98335.78
2022-08-19T06:03:24.097Z,98338.66
2022-08-19T06:05:54.350Z,98342.69
2022-08-19T06:08:33.820Z,98342.81
2022-08-19T06:11:37.963Z,98353.22
2022-08-19T06:14:13.751Z,98360.28
2022-08-19T06:16:47.421Z,98377.94
2022-08-19T06:19:21.042Z,98375.56
2022-08-19T06:21:52.342Z,98379.38
2022-08-19T06:24:26.541Z,98388.66
2022-08-19T06:27:01.545Z,98384.00
2022-08-19T06:29:34.668Z,98389.66
2022-08-19T06:32:07.083Z,98394.66
2022-08-19T06:34:37.906Z,98395.44
2022-08-19T06:37:07.164Z,98388.66
2022-08-19T06:39:42.126Z,98400.38
2022-08-19T06:42:14.364Z,98403.44
2022-08-19T06:44:48.720Z,98412.91
2022-08-19T06:47:23.451Z,98413.25
2022-08-19T06:50:05.388Z,98410.22
2022-08-19T06:52:38.369Z,98418.72
2022-08-19T06:55:08.711Z,98423.53
2022-08-19T06:57:39.231Z,98429.28
2022-08-19T07:00:14.468Z,98434.59
2022-08-19T07:03:06.031Z,98429.59
2022-08-19T07:05:49.259Z,98421.25
2022-08-19T07:08:18.057Z,98421.25
2022-08-19T07:10:49.082Z,98412.75
2022-08-19T07:13:18.087Z,98403.94
2022-08-19T07:15:48.673Z,98406.19
2022-08-19T07:18:17.670Z,98415.16
2022-08-19T07:20:49.454Z,98409.72
2022-08-19T07:23:18.335Z,98420.00
2022-08-19T07:26:52.315Z,98425.09
2022-08-19T07:29:25.656Z,98416.13
2022-08-19T07:32:00.018Z,98430.22
2022-08-19T07:34:32.352Z,98433.47
2022-08-19T07:37:03.458Z,98433.47
2022-08-19T07:39:37.439Z,98434.25
2022-08-19T07:42:11.456Z,98442.09
2022-08-19T07:44:50.319Z,98442.09
2022-08-19T07:47:50.090Z,98441.78
2022-08-19T07:50:13.747Z,98442.59
2022-08-19T07:52:48.695Z,98447.56
2022-08-19T07:56:43.416Z,98444.06
2022-08-19T07:59:12.860Z,98440.38
2022-08-19T08:01:42.858Z,98437.00
2022-08-19T08:05:01.619Z,98449.00
2022-08-19T08:07:47.998Z,98456.09
2022-08-19T08:10:42.123Z,98459.31
2022-08-19T08:13:11.256Z,98458.66
2022-08-19T08:15:43.313Z,98462.03
2022-08-19T08:18:14.580Z,98464.25
2022-08-19T08:20:43.584Z,98474.50
2022-08-19T08:23:26.871Z,98476.78
2022-08-19T08:26:01.584Z,98473.22
2022-08-19T08:28:31.004Z,98472.44
2022-08-19T08:31:01.531Z,98474.84
2022-08-19T08:33:34.867Z,98467.78
2022-08-19T08:36:16.053Z,98462.00
2022-08-19T08:38:47.564Z,98462.63
2022-08-19T08:41:30.579Z,98472.13
2022-08-19T08:44:03.226Z,98476.13
2022-08-19T08:46:44.169Z,98484.13
2022-08-19T08:49:30.553Z,98480.28
2022-08-19T08:52:07.251Z,98485.09
2022-08-19T08:54:49.191Z,98483.47
2022-08-19T08:57:36.913Z,98483.19
2022-08-19T09:00:22.012Z,98471.47
2022-08-19T09:02:51.679Z,98478.03
2022-08-19T09:05:25.742Z,98482.53
2022-08-19T09:08:07.083Z,98489.59
2022-08-19T09:10:44.343Z,98486.88
2022-08-19T09:13:30.246Z,98485.72
2022-08-19T09:16:14.954Z,98489.59
2022-08-19T09:19:40.166Z,98493.28
2022-08-19T09:22:25.804Z,98484.91
2022-08-19T09:24:57.675Z,98472.44
2022-08-19T09:27:42.156Z,98468.25
2022-08-19T09:30:23.722Z,98469.38
2022-08-19T09:32:54.769Z,98465.97
2022-08-19T09:35:25.280Z,98463.25
2022-08-19T09:37:57.608Z,98460.34
2022-08-19T09:40:34.388Z,98455.84
2022-08-19T09:43:11.467Z,98454.72
2022-08-19T09:45:43.663Z,98450.09
2022-08-19T09:48:12.416Z,98456.34
2022-08-19T09:50:51.726Z,98457.84
2022-08-19T09:53:25.583Z,98468.56
2022-08-19T09:55:56.926Z,98462.00
2022-08-19T09:58:28.738Z,98461.84
2022-08-19T10:01:00.679Z,98473.56
2022-08-19T10:03:32.003Z,98475.47
2022-08-19T10:06:03.138Z,98477.41
2022-08-19T10:08:35.848Z,98466.00
2022-08-19T10:11:27.416Z,98471.13
2022-08-19T10:13:55.799Z,98465.50
2022-08-19T10:16:30.176Z,98457.78
2022-08-19T10:19:00.396Z,98470.47
2022-08-19T10:21:36.360Z,98470.78
2022-08-19T10:24:09.520Z,98481.72
2022-08-19T10:26:43.022Z,98486.38
2022-08-19T10:29:13.006Z,98497.63
2022-08-19T10:32:04.518Z,98503.38
2022-08-19T10:34:48.045Z,98495.94
2022-08-19T10:37:23.510Z,98481.78
2022-08-19T10:39:53.186Z,98481.38
2022-08-19T10:42:22.193Z,98481.47
2022-08-19T10:44:51.938Z,98487.44
2022-08-19T10:47:25.729Z,98481.16
2022-08-19T10:50:14.933Z,98488.31
2022-08-19T10:52:49.727Z,98495.56
2022-08-19T10:55:40.081Z,98495.09
2022-08-19T10:58:14.569Z,98504.56
2022-08-19T11:00:44.785Z,98504.72
2022-08-19T11:03:15.206Z,98520.50
2022-08-19T11:05:44.129Z,98500.06
2022-08-19T11:08:23.770Z,98495.78
2022-08-19T11:11:00.303Z,98505.16
2022-08-19T11:13:29.762Z,98518.16
2022-08-19T11:16:07.805Z,98516.19
2022-08-19T11:18:41.646Z,98515.84
2022-08-19T11:21:19.992Z,98518.88
2022-08-19T11:23:51.475Z,98523.88
2022-08-19T11:26:22.715Z,98526.13
2022-08-19T11:28:54.627Z,98518.72
2022-08-19T11:31:29.264Z,98519.81
2022-08-19T11:34:08.511Z,98520.09
2022-08-19T11:36:48.544Z,98535.69
2022-08-19T11:39:23.373Z,98526.69
2022-08-19T11:41:58.241Z,98526.22
2022-08-19T11:44:28.831Z,98517.56
2022-08-19T11:47:08.746Z,98512.75
2022-08-19T11:49:40.752Z,98520.22
2022-08-19T11:52:10.135Z,98517.88
2022-08-19T11:55:07.721Z,98520.09
2022-08-19T11:57:39.941Z,98521.34
2022-08-19T12:00:13.265Z,98526.97
2022-08-19T12:02:46.318Z,98524.38
2022-08-19T12:05:17.475Z,98534.84
2022-08-19T12:08:16.771Z,98546.22
2022-08-19T12:10:46.622Z,98544.22
2022-08-19T12:13:19.734Z,98543.25
2022-08-19T12:15:50.591Z,98539.44
2022-08-19T12:18:20.861Z,98540.06
2022-08-19T12:20:56.269Z,98546.00
2022-08-19T12:23:25.590Z,98555.16
2022-08-19T12:25:55.961Z,98550.16
2022-08-19T12:28:29.964Z,98542.44
2022-08-19T12:31:00.061Z,98555.94
2022-08-19T12:33:30.804Z,98560.63
2022-08-19T12:36:06.566Z,98558.06
2022-08-19T12:38:36.697Z,98557.13
2022-08-19T12:41:07.843Z,98560.50
2022-08-19T12:44:33.691Z,98556.28
2022-08-19T12:47:05.910Z,98561.75
2022-08-19T12:49:54.711Z,98561.28
2022-08-19T12:52:28.958Z,98561.94
2022-08-19T12:55:00.615Z,98564.03
2022-08-19T12:57:33.967Z,98565.00
2022-08-19T13:00:10.793Z,98569.25
2022-08-19T13:02:41.764Z,98558.69
2022-08-19T13:05:15.400Z,98558.69
2022-08-19T13:07:47.903Z,98561.41
2022-08-19T13:10:21.074Z,98553.69
2022-08-19T13:13:17.130Z,98548.22
2022-08-19T13:15:47.037Z,98550.16
2022-08-19T13:18:26.589Z,98549.06
2022-08-19T13:20:57.855Z,98557.25
2022-08-19T13:23:28.301Z,98558.84
2022-08-19T13:26:23.078Z,98557.91
2022-08-19T13:29:11.785Z,98558.22
2022-08-19T13:32:24.075Z,98551.81
2022-08-19T13:34:53.089Z,98552.47
2022-08-19T13:37:47.440Z,98553.75
2022-08-19T13:40:21.197Z,98554.56
2022-08-19T13:42:52.524Z,98560.19
2022-08-19T13:45:28.798Z,98558.09
2022-08-19T13:47:59.989Z,98552.50
2022-08-19T13:50:32.601Z,98555.22
2022-08-19T13:53:02.726Z,98555.06
2022-08-19T13:55:33.388Z,98557.63
2022-08-19T13:58:04.410Z,98543.16
2022-08-19T14:00:38.028Z,98537.22
2022-08-19T14:03:09.282Z,98551.97
2022-08-19T14:05:39.411Z,98564.97
2022-08-19T14:08:08.816Z,98567.41
2022-08-19T14:10:39.221Z,98564.47
2022-08-19T14:13:08.159Z,98557.25
2022-08-19T14:15:38.353Z,98554.06
2022-08-19T14:18:13.708Z,98555.66
2022-08-19T14:20:43.257Z,98553.22
2022-08-19T14:23:14.863Z,98555.00
2022-08-19T14:25:47.585Z,98560.47
2022-08-19T14:28:43.133Z,98560.47
2022-08-19T14:31:12.938Z,98558.22
2022-08-19T14:33:43.517Z,98559.22
2022-08-19T14:36:12.503Z,98556.28
2022-08-19T14:39:18.474Z,98556.28
2022-08-19T14:41:48.727Z,98550.84
2022-08-19T14:44:17.705Z,98554.22
2022-08-19T14:46:49.621Z,98554.88
2022-08-19T14:49:19.845Z,98560.00
2022-08-19T14:51:49.143Z,98560.97
2022-08-19T14:54:17.978Z,98569.47
2022-08-19T14:56:49.242Z,98568.84
2022-08-19T14:59:19.492Z,98567.41
2022-08-19T15:01:49.514Z,98564.69
2022-08-19T15:04:18.678Z,98556.78
2022-08-19T15:06:47.582Z,98557.94
2022-08-19T15:09:17.428Z,98546.50
2022-08-19T15:11:50.793Z,98552.47
2022-08-19T15:14:22.063Z,98551.63
2022-08-19T15:16:51.193Z,98549.53
2022-08-19T15:19:22.547Z,98560.47
2022-08-19T15:21:55.819Z,98563.03
2022-08-19T15:24:27.873Z,98563.97
2022-08-19T15:27:07.889Z,98562.22
2022-08-19T15:29:36.745Z,98569.75
2022-08-19T15:32:07.273Z,98571.34
2022-08-19T15:34:39.067Z,98568.16
2022-08-19T15:37:07.889Z,98563.97
2022-08-19T15:39:37.835Z,98560.13
2022-08-19T15:42:08.893Z,98556.75
2022-08-19T15:44:37.745Z,98552.75
2022-08-19T15:47:07.187Z,98545.72
2022-08-19T15:49:36.362Z,98537.50
2022-08-19T15:52:10.703Z,98528.19
2022-08-19T15:54:39.678Z,98527.06
2022-08-19T15:57:27.397Z,98530.13
2022-08-19T16:00:13.870Z,98533.66
2022-08-19T16:03:03.122Z,98526.59
2022-08-19T16:05:50.374Z,98519.38
2022-08-19T16:08:21.338Z,98534.00
2022-08-19T16:10:50.231Z,98538.31
2022-08-19T16:13:20.634Z,98543.44
2022-08-19T16:15:49.469Z,98546.03
2022-08-19T16:18:18.289Z,98561.16
2022-08-19T16:20:47.359Z,98560.00
2022-08-19T16:23:16.530Z,98557.28
2022-08-19T16:25:45.608Z,98570.13
2022-08-19T16:28:14.677Z,98571.09
2022-08-19T16:30:48.677Z,98558.44
2022-08-19T16:33:23.221Z,98550.06
2022-08-19T16:36:01.752Z,98548.31
2022-08-19T16:38:38.148Z,98538.38
2022-08-19T16:41:07.547Z,98530.22
2022-08-19T16:43:36.559Z,98528.41
2022-08-19T16:46:07.554Z,98523.47
2022-08-19T16:48:43.180Z,98527.94
2022-08-19T16:51:13.094Z,98511.25
2022-08-19T16:53:45.272Z,98518.31
2022-08-19T16:56:18.432Z,98518.47
2022-08-19T16:58:47.895Z,98514.63
2022-08-19T17:01:19.099Z,98514.44
2022-08-19T17:03:50.741Z,98515.28
2022-08-19T17:06:26.279Z,98516.88
2022-08-19T17:08:58.435Z,98511.88
2022-08-19T17:11:30.177Z,98515.59
2022-08-19T17:13:59.896Z,98516.38
2022-08-19T17:16:36.810Z,98525.84
2022-08-19T17:19:10.124Z,98524.75
2022-08-19T17:21:40.836Z,98525.69
2022-08-19T17:24:10.500Z,98525.84
2022-08-19T17:26:40.875Z,98528.91
2022-08-19T17:29:09.839Z,98531.66
2022-08-19T17:31:40.318Z,98535.81
2022-08-19T17:34:09.396Z,98551.53
2022-08-19T17:36:38.283Z,98548.00
2022-08-19T17:39:07.707Z,98544.78
2022-08-19T17:41:40.906Z,98533.56
2022-08-19T17:44:52.821Z,98542.84
2022-08-19T17:47:23.363Z,98548.66
2022-08-19T17:49:52.604Z,98551.38
2022-08-19T17:52:22.036Z,98561.97
2022-08-19T17:54:51.489Z,98563.91
2022-08-19T17:57:21.029Z,98571.72
2022-08-19T17:59:50.629Z,98571.72
2022-08-19T18:02:21.927Z,98575.75
2022-08-19T18:04:53.053Z,98571.59
2022-08-19T18:07:22.709Z,98584.09
2022-08-19T18:09:55.066Z,98598.72
2022-08-19T18:12:28.121Z,98610.59
2022-08-19T18:14:59.681Z,98611.72
2022-08-19T18:17:28.840Z,98620.81
2022-08-19T18:20:23.492Z,98631.28
2022-08-19T18:22:53.632Z,98645.41
2022-08-19T18:25:26.598Z,98658.56
2022-08-19T18:29:15.005Z,98656.81
2022-08-19T18:31:44.207Z,98646.22
2022-08-19T18:34:18.100Z,98653.28
2022-08-19T18:36:53.782Z,98648.75
2022-08-19T18:40:57.849Z,98649.25
2022-08-19T18:43:44.574Z,98640.38
2022-08-19T18:46:31.330Z,98643.75
2022-08-19T18:49:07.181Z,98635.09
2022-08-19T18:51:53.718Z,98636.38
2022-08-19T18:54:22.844Z,98633.97
2022-08-19T18:56:55.898Z,98636.38
2022-08-19T19:00:15.654Z,98642.16
2022-08-19T19:02:50.322Z,98638.28
2022-08-19T19:05:23.241Z,98643.09
2022-08-19T19:07:54.628Z,98639.09
2022-08-19T19:10:25.873Z,98650.63
2022-08-19T19:13:01.510Z,98641.31
2022-08-19T19:15:31.226Z,98655.47
2022-08-19T19:18:05.390Z,98647.75
2022-08-19T19:20:36.356Z,98630.41
2022-08-19T19:23:07.742Z,98625.75
2022-08-19T19:25:50.003Z,98635.56
2022-08-19T19:28:25.748Z,98635.88
2022-08-19T19:31:00.353Z,98634.41
2022-08-19T19:33:30.449Z,98634.72
2022-08-19T19:35:59.845Z,98635.53
2022-08-19T19:38:32.267Z,98634.56
2022-08-19T19:41:01.550Z,98636.66
2022-08-19T19:43:34.902Z,98636.19
2022-08-19T19:46:10.543Z,98645.47
2022-08-19T19:48:39.566Z,98648.69
2022-08-19T19:51:13.472Z,98636.19
2022-08-19T19:53:46.953Z,98638.91
2022-08-19T19:56:45.091Z,98629.59
2022-08-19T19:59:27.706Z,98629.09
2022-08-19T20:02:11.867Z,98631.34
2022-08-19T20:04:45.599Z,98622.03
2022-08-19T20:07:14.832Z,98627.50
2022-08-19T20:09:59.719Z,98623.81
2022-08-19T20:12:32.032Z,98623.81
2022-08-19T20:15:01.101Z,98628.78
2022-08-19T20:17:30.093Z,98639.00
2022-08-19T20:19:59.162Z,98641.59
2022-08-19T20:22:28.082Z,98650.25
2022-08-19T20:25:15.861Z,98641.13
2022-08-19T20:27:45.864Z,98643.53
2022-08-19T20:30:21.512Z,98645.13
2022-08-19T20:36:00.737Z,98662.78
2022-08-19T20:38:29.884Z,98657.63
2022-08-19T20:41:14.089Z,98654.91
2022-08-19T20:43:43.025Z,98657.63
2022-08-19T20:46:21.070Z,98653.81
2022-08-19T20:48:50.215Z,98645.78
2022-08-19T20:51:27.825Z,98646.38
2022-08-19T20:53:59.530Z,98651.84
2022-08-19T20:56:31.298Z,98658.88
2022-08-19T21:03:31.192Z,98658.41
2022-08-19T21:06:33.124Z,98656.34
2022-08-19T21:10:03.570Z,98658.22
2022-08-19T21:17:21.264Z,98659.19
2022-08-19T21:27:08.686Z,98637.41
2022-08-19T21:34:21.188Z,98659.19
2022-08-19T21:38:28.864Z,98659.81
2022-08-19T21:41:09.446Z,98655.81
2022-08-19T21:48:08.322Z,98650.34
2022-08-19T21:51:06.050Z,98647.16
2022-08-19T21:53:39.873Z,98650.97
2022-08-19T21:57:25.432Z,98643.91
2022-08-19T21:59:55.945Z,98637.19
2022-08-19T22:02:25.471Z,98639.72
2022-08-19T22:04:56.377Z,98628.03
2022-08-19T22:07:25.741Z,98634.28
2022-08-19T22:09:54.699Z,98643.56
2022-08-19T22:12:28.613Z,98644.38
2022-08-19T22:14:59.304Z,98636.34
2022-08-19T22:17:30.077Z,98638.09
2022-08-19T22:20:00.565Z,98638.59
2022-08-19T22:22:32.858Z,98644.03
2022-08-19T22:25:10.070Z,98635.53
2022-08-19T22:27:39.524Z,98643.56
2022-08-19T22:30:15.629Z,98647.88
2022-08-19T22:32:48.870Z,98644.66
2022-08-19T22:35:28.646Z,98645.16
2022-08-19T22:37:59.052Z,98643.22
2022-08-19T22:40:30.387Z,98636.47
2022-08-19T22:43:02.356Z,98643.56
2022-08-19T22:45:33.547Z,98637.59
2022-08-19T22:48:02.806Z,98640.00
2022-08-19T22:50:33.298Z,98647.88
2022-08-19T22:53:02.984Z,98657.16
2022-08-19T22:55:32.980Z,98663.41
2022-08-19T22:58:01.977Z,98666.94
2022-08-19T23:00:32.888Z,98659.91
2022-08-19T23:03:02.589Z,98659.38
2022-08-19T23:05:33.347Z,98650.72
2022-08-19T23:08:06.980Z,98654.75
2022-08-19T23:10:35.901Z,98645.28
2022-08-19T23:13:04.664Z,98645.28
2022-08-19T23:15:34.310Z,98646.09
2022-08-19T23:18:05.557Z,98643.38
2022-08-19T23:20:40.538Z,98644.16
2022-08-19T23:23:12.757Z,98646.09
2022-08-19T23:25:41.803Z,98651.22
2022-08-19T23:28:28.155Z,98650.72
2022-08-19T23:30:56.994Z,98649.13
2022-08-19T23:33:46.730Z,98641.44
2022-08-19T23:36:21.281Z,98634.38
2022-08-19T23:38:53.190Z,98632.78
2022-08-19T23:41:25.802Z,98620.88
2022-08-19T23:43:55.118Z,98625.97
2022-08-19T23:46:27.450Z,98624.03
2022-08-19T23:48:57.632Z,98624.53
2022-08-19T23:51:27.783Z,98626.44
2022-08-19T23:53:56.573Z,98630.78
2022-08-19T23:56:25.304Z,98634.63
2022-08-19T23:58:54.925Z,98633.00
